Mc Kellar Sipes Regional Airport
KMKL : now visible

Airfield :











YOU CAN JOIN US ON...

 
LOGIN :

Register | Disclaimer

   EN    FR    IT 

 









Legend :    VFR   Marginal VFR   IFR   Intensive IFR   Very Intensive IFR
Visi :
Ceiling :
>= 8 km
>= 3000ft
5 to 8 km
1000 to 3000 ft
1500m to 5 km
500 to 1000 ft
800 to 1500m
200 to 500 ft
< 800m
< 200 ft
Symbols :   Thunderstorms  Fog  Heavy snow  Heavy precipitations  Wind > 20 kt






- Airport Elevation : 434 ft
- IATA code : MKL


KMKL - Mc Kellar Sipes Regional

CURRENT METAR :
  • 290753Z AUTO 17005KT 10SM CLR 09/06 A2995 RMK AO2 SLP142 T00890061

EXPIRED METARs :
  • 290653Z AUTO 15005KT 10SM CLR 09/06 A2996 RMK AO2 SLP145 T00940061
  • 290553Z AUTO 17006KT 10SM CLR 09/06 A2996 RMK AO2 SLP146 T00890061 10106 20050 401560017 58008

TAF KMKL
Valid from the 29 at 06:00 until the 30 at 06:00 UTC


290534Z 2906/3006 16005KT P6SM SCT035 SCT150
FM291300 16008KT P6SM BKN035
FM291500 17014G20KT P6SM OVC025
FM291900 18014G22KT P6SM -SHRA VCTS SCT007 BKN020CB OVC200
FM300000 20011G18KT P6SM -SHRA VCTS BKN007 BKN020CB OVC200
FM300300 23010G18KT P6SM OVC015
KZME FIR / North America



MET'MAP, your aeronautical weather chart ! - Copyright ORBIFLY December 2007 - Disclaimer

ORBIFLY MET'MAP TEAM :

Programming & Development : Alexandra Zaïnal
Original concept : Baudouin d'Aumeries
Technical & hardware support : Manuel Goepfert
Assistance : Marc-Olivier Méhu




SOURCES & CREDITS :

   NOAA       Earth
Advisory